createdAt,value
2017-05-15T00:01:06.862Z,71.40
2017-05-15T00:03:34.248Z,72.10
2017-05-15T00:06:01.936Z,72.30
2017-05-15T00:08:29.805Z,72.80
2017-05-15T00:10:57.235Z,72.90
2017-05-15T00:13:24.639Z,73.30
2017-05-15T00:15:53.045Z,74.00
2017-05-15T00:18:21.483Z,73.50
2017-05-15T00:20:49.055Z,73.40
2017-05-15T00:23:16.467Z,73.50
2017-05-15T00:25:43.881Z,73.80
2017-05-15T00:28:12.405Z,73.80
2017-05-15T00:30:40.688Z,73.70
2017-05-15T00:33:08.067Z,73.90
2017-05-15T00:35:36.267Z,73.20
2017-05-15T00:38:03.887Z,72.90
2017-05-15T00:40:32.107Z,72.70
2017-05-15T00:43:02.035Z,72.20
2017-05-15T00:45:29.467Z,71.50
2017-05-15T00:47:56.866Z,71.30
2017-05-15T00:52:58.758Z,70.50
2017-05-15T00:55:26.135Z,70.60
2017-05-15T00:57:53.708Z,70.80
2017-05-15T01:00:21.164Z,71.30
2017-05-15T01:02:48.622Z,71.40
2017-05-15T01:05:17.023Z,71.80
2017-05-15T01:07:44.728Z,71.90
2017-05-15T01:10:12.298Z,71.80
2017-05-15T01:12:39.733Z,71.80
2017-05-15T01:15:07.127Z,72.20
2017-05-15T01:17:34.534Z,72.00
2017-05-15T01:20:01.940Z,72.10
2017-05-15T01:22:29.706Z,72.00
2017-05-15T01:24:57.102Z,71.90
2017-05-15T01:27:24.543Z,72.00
2017-05-15T01:29:52.121Z,72.30
2017-05-15T01:32:20.347Z,71.90
2017-05-15T01:34:48.552Z,71.40
2017-05-15T01:37:16.910Z,70.40
2017-05-15T01:39:44.309Z,69.70
2017-05-15T01:42:11.847Z,69.60
2017-05-15T01:44:39.445Z,69.40
2017-05-15T01:47:06.958Z,69.20
2017-05-15T01:49:34.637Z,69.40
2017-05-15T01:52:02.114Z,69.50
2017-05-15T01:54:30.004Z,69.20
2017-05-15T01:56:58.173Z,69.20
2017-05-15T01:59:25.662Z,68.40
2017-05-15T02:01:53.718Z,68.90
2017-05-15T02:04:21.291Z,70.90
2017-05-15T02:06:48.985Z,71.40
2017-05-15T02:09:16.440Z,72.00
2017-05-15T02:11:44.023Z,71.20
2017-05-15T02:14:11.621Z,70.60
2017-05-15T02:16:39.049Z,70.70
2017-05-15T02:19:06.438Z,71.10
2017-05-15T02:21:34.095Z,70.40
2017-05-15T02:24:01.553Z,70.80
2017-05-15T02:26:28.988Z,70.80
2017-05-15T02:28:56.430Z,70.80
2017-05-15T02:33:52.187Z,70.60
2017-05-15T02:36:19.833Z,70.70
2017-05-15T02:38:47.269Z,71.20
2017-05-15T02:41:14.742Z,71.60
2017-05-15T02:43:43.014Z,70.50
2017-05-15T02:46:11.210Z,70.80
2017-05-15T02:48:38.866Z,70.80
2017-05-15T02:51:06.318Z,71.10
2017-05-15T02:53:33.880Z,70.60
2017-05-15T02:56:01.363Z,71.00
2017-05-15T02:58:29.080Z,71.80
2017-05-15T03:00:56.498Z,71.90
2017-05-15T03:03:24.869Z,71.70
2017-05-15T03:05:52.267Z,71.80
2017-05-15T03:08:19.648Z,71.30
2017-05-15T03:10:47.044Z,71.60
2017-05-15T03:13:14.555Z,71.90
2017-05-15T03:15:41.966Z,72.00
2017-05-15T03:18:09.700Z,72.00
2017-05-15T03:20:37.543Z,72.30
2017-05-15T03:23:05.086Z,72.40
2017-05-15T03:25:32.660Z,72.70
2017-05-15T03:28:01.068Z,72.40
2017-05-15T03:30:28.490Z,72.50
2017-05-15T03:32:55.895Z,72.60
2017-05-15T03:35:23.298Z,72.20
2017-05-15T03:37:50.700Z,72.50
2017-05-15T03:40:18.191Z,72.50
2017-05-15T03:42:45.717Z,72.00
2017-05-15T03:45:13.268Z,72.50
2017-05-15T03:47:40.704Z,72.40
2017-05-15T03:50:08.137Z,72.30
2017-05-15T03:52:35.720Z,72.30
2017-05-15T03:55:03.877Z,73.10
2017-05-15T03:57:31.267Z,71.80
2017-05-15T03:59:58.855Z,72.90
2017-05-15T04:02:26.316Z,72.20
2017-05-15T04:04:54.378Z,72.30
2017-05-15T04:07:21.777Z,72.20
2017-05-15T04:09:49.253Z,72.80
2017-05-15T04:12:16.651Z,73.30
2017-05-15T04:14:44.097Z,73.00
2017-05-15T04:17:12.040Z,72.90
2017-05-15T04:19:40.241Z,72.60
2017-05-15T04:22:07.643Z,72.40
2017-05-15T04:24:35.121Z,72.60
2017-05-15T04:27:02.509Z,72.30
2017-05-15T04:29:30.320Z,72.10
2017-05-15T04:31:57.911Z,72.70
2017-05-15T04:34:27.900Z,72.60
2017-05-15T04:36:55.556Z,72.70
2017-05-15T04:39:23.062Z,72.70
2017-05-15T04:41:50.497Z,71.80
2017-05-15T04:44:18.930Z,71.40
2017-05-15T04:46:46.527Z,72.00
2017-05-15T04:49:14.440Z,72.00
2017-05-15T04:51:41.818Z,71.90
2017-05-15T04:57:15.470Z,71.20
2017-05-15T04:59:45.359Z,70.90
2017-05-15T05:02:15.029Z,71.10
2017-05-15T05:07:24.107Z,71.30
2017-05-15T05:09:58.972Z,72.00
2017-05-15T05:12:28.039Z,72.00
2017-05-15T05:14:55.390Z,72.30
2017-05-15T05:17:22.814Z,71.70
2017-05-15T05:19:51.125Z,72.30
2017-05-15T05:22:45.556Z,72.60
2017-05-15T05:25:21.941Z,72.40
2017-05-15T05:27:54.512Z,72.80
2017-05-15T05:30:41.099Z,72.50
2017-05-15T05:33:20.832Z,72.70
2017-05-15T05:35:59.216Z,72.90
2017-05-15T05:38:37.041Z,73.10
2017-05-15T05:41:10.436Z,72.40
2017-05-15T05:43:58.109Z,72.70
2017-05-15T05:46:25.547Z,72.10
2017-05-15T05:48:52.971Z,71.40
2017-05-15T05:51:20.334Z,71.40
2017-05-15T05:53:47.670Z,71.30
2017-05-15T05:56:27.381Z,70.80
2017-05-15T05:59:09.716Z,71.20
2017-05-15T06:01:49.185Z,70.50
2017-05-15T06:04:43.098Z,70.60
2017-05-15T06:07:22.773Z,70.30
2017-05-15T06:10:02.950Z,70.70
2017-05-15T06:12:49.312Z,70.80
2017-05-15T06:15:28.732Z,71.00
2017-05-15T06:18:09.327Z,71.10
2017-05-15T06:20:36.477Z,71.30
2017-05-15T06:23:24.943Z,71.60
2017-05-15T06:26:20.181Z,71.40
2017-05-15T06:28:48.197Z,71.40
2017-05-15T06:31:15.456Z,71.50
2017-05-15T06:33:42.871Z,71.50
2017-05-15T06:36:10.390Z,72.00
2017-05-15T06:38:50.891Z,71.70
2017-05-15T06:41:30.641Z,72.20
2017-05-15T06:43:57.927Z,72.00
2017-05-15T06:46:25.445Z,72.30
2017-05-15T06:48:52.742Z,72.20
2017-05-15T06:51:20.054Z,71.80
2017-05-15T06:53:47.355Z,71.60
2017-05-15T06:56:14.804Z,71.40
2017-05-15T06:58:42.106Z,71.20
2017-05-15T07:01:09.421Z,70.80
2017-05-15T07:03:36.763Z,71.00
2017-05-15T07:06:04.063Z,71.00
2017-05-15T07:08:31.222Z,69.90
2017-05-15T07:10:58.612Z,69.80
2017-05-15T07:13:26.805Z,69.10
2017-05-15T07:15:54.168Z,68.80
2017-05-15T07:18:21.534Z,68.20
2017-05-15T07:20:49.873Z,68.80
2017-05-15T07:23:17.297Z,69.50
2017-05-15T07:25:45.092Z,68.90
2017-05-15T07:28:12.466Z,68.70
2017-05-15T07:30:39.936Z,68.90
2017-05-15T07:33:08.348Z,68.50
2017-05-15T07:35:35.889Z,68.00
2017-05-15T07:38:04.018Z,68.00
2017-05-15T07:40:31.607Z,67.90
2017-05-15T07:42:59.911Z,67.70
2017-05-15T07:45:27.317Z,67.40
2017-05-15T07:47:55.810Z,66.60
2017-05-15T07:50:23.320Z,66.70
2017-05-15T07:52:51.130Z,66.60
2017-05-15T07:55:19.317Z,66.20
2017-05-15T07:57:47.511Z,65.40
2017-05-15T08:00:14.924Z,66.90
2017-05-15T08:02:42.340Z,66.30
2017-05-15T08:05:09.756Z,66.10
2017-05-15T08:07:38.033Z,66.00
2017-05-15T08:10:06.828Z,65.90
2017-05-15T08:12:34.422Z,65.80
2017-05-15T08:15:01.813Z,64.20
2017-05-15T08:17:29.225Z,63.60
2017-05-15T08:19:56.622Z,63.70
2017-05-15T08:22:24.010Z,63.10
2017-05-15T08:24:51.466Z,62.70
2017-05-15T08:27:19.615Z,62.20
2017-05-15T08:29:47.066Z,61.80
2017-05-15T08:32:14.563Z,62.50
2017-05-15T08:34:41.977Z,63.10
2017-05-15T08:37:10.147Z,63.60
2017-05-15T08:39:37.590Z,63.40
2017-05-15T08:42:04.981Z,62.90
2017-05-15T08:44:33.141Z,61.70
2017-05-15T08:47:01.406Z,62.00
2017-05-15T08:49:28.950Z,61.80
2017-05-15T08:51:56.322Z,61.10
2017-05-15T08:54:23.693Z,60.10
2017-05-15T08:56:51.076Z,60.50
2017-05-15T08:59:18.888Z,59.90
2017-05-15T09:01:46.313Z,58.50
2017-05-15T09:04:13.709Z,57.10
2017-05-15T09:06:41.088Z,55.10
2017-05-15T09:09:10.272Z,54.80
2017-05-15T09:11:37.716Z,52.50
2017-05-15T09:14:05.460Z,48.60
2017-05-15T09:16:32.845Z,46.00
2017-05-15T09:19:00.228Z,45.30
2017-05-15T09:21:28.322Z,41.90
2017-05-15T09:23:55.742Z,41.60
2017-05-15T09:26:23.097Z,41.00
2017-05-15T09:28:51.187Z,39.70
2017-05-15T09:31:18.581Z,40.20
2017-05-15T09:33:45.958Z,42.90
2017-05-15T09:36:13.591Z,45.20
2017-05-15T09:38:41.603Z,42.80
2017-05-15T09:41:09.734Z,43.30
2017-05-15T09:43:37.104Z,45.00
2017-05-15T09:46:04.511Z,43.90
2017-05-15T09:48:31.873Z,47.80
2017-05-15T09:50:59.359Z,48.60
2017-05-15T09:53:26.718Z,50.70
2017-05-15T09:55:54.089Z,47.70
2017-05-15T09:58:21.460Z,46.40
2017-05-15T10:00:48.820Z,46.10
2017-05-15T10:03:16.995Z,46.30
2017-05-15T10:05:44.383Z,41.00
2017-05-15T10:08:11.985Z,38.60
2017-05-15T10:10:39.354Z,35.40
2017-05-15T10:13:06.730Z,37.40
2017-05-15T10:15:34.844Z,37.60
2017-05-15T10:18:02.337Z,38.00
2017-05-15T10:20:29.726Z,37.30
2017-05-15T10:22:57.122Z,38.60
2017-05-15T10:25:24.463Z,37.50
2017-05-15T10:27:51.794Z,38.40
2017-05-15T10:30:19.410Z,37.50
2017-05-15T10:32:46.983Z,37.70
2017-05-15T10:35:15.187Z,39.80
2017-05-15T10:37:42.551Z,33.40
2017-05-15T10:40:09.950Z,32.70
2017-05-15T10:42:37.313Z,30.50
2017-05-15T10:45:04.676Z,33.00
2017-05-15T10:47:32.774Z,34.20
2017-05-15T10:50:00.209Z,32.20
2017-05-15T10:52:28.337Z,32.10
2017-05-15T10:54:56.068Z,33.30
2017-05-15T10:57:23.467Z,32.70
2017-05-15T10:59:50.887Z,33.10
2017-05-15T11:02:18.248Z,36.20
2017-05-15T11:04:45.617Z,36.90
2017-05-15T11:07:13.095Z,37.40
2017-05-15T11:09:40.482Z,36.90
2017-05-15T11:12:08.590Z,37.50
2017-05-15T11:14:36.871Z,39.60
2017-05-15T11:17:04.504Z,42.20
2017-05-15T11:19:32.077Z,43.20
2017-05-15T11:21:59.465Z,44.90
2017-05-15T11:24:26.921Z,44.00
2017-05-15T11:26:55.079Z,46.30
2017-05-15T11:29:22.455Z,47.40
2017-05-15T11:31:49.813Z,46.10
2017-05-15T11:34:17.193Z,45.60
2017-05-15T11:36:45.270Z,45.20
2017-05-15T11:39:20.327Z,44.00
2017-05-15T11:41:47.938Z,42.90
2017-05-15T11:44:15.302Z,43.20
2017-05-15T11:46:42.751Z,47.30
2017-05-15T11:49:11.286Z,48.10
2017-05-15T11:51:38.643Z,52.30
2017-05-15T11:54:06.051Z,53.40
2017-05-15T11:56:33.409Z,54.80
2017-05-15T11:59:01.513Z,54.60
2017-05-15T12:01:28.878Z,55.60
2017-05-15T12:03:57.365Z,56.70
2017-05-15T12:06:25.439Z,56.20
2017-05-15T12:08:52.813Z,57.20
2017-05-15T12:11:20.256Z,57.00
2017-05-15T12:13:47.690Z,56.10
2017-05-15T12:16:15.086Z,56.10
2017-05-15T12:18:42.498Z,56.60
2017-05-15T12:21:09.936Z,56.40
2017-05-15T12:23:37.547Z,56.40
2017-05-15T12:26:05.045Z,55.20
2017-05-15T12:28:33.803Z,52.90
2017-05-15T12:31:01.258Z,52.10
2017-05-15T12:33:29.009Z,52.60
2017-05-15T12:35:56.525Z,52.20
2017-05-15T12:38:23.982Z,53.00
2017-05-15T12:40:51.678Z,51.70
2017-05-15T12:43:19.170Z,51.30
2017-05-15T12:45:47.427Z,50.80
2017-05-15T12:48:14.915Z,49.10
2017-05-15T12:50:42.956Z,49.10
2017-05-15T12:53:10.386Z,49.80
2017-05-15T12:55:37.809Z,51.00
2017-05-15T12:58:05.429Z,50.50
2017-05-15T13:00:32.877Z,50.40
2017-05-15T13:03:00.295Z,50.00
2017-05-15T13:05:28.061Z,49.50
2017-05-15T13:07:55.960Z,48.40
2017-05-15T13:10:23.431Z,48.20
2017-05-15T13:12:50.875Z,48.10
2017-05-15T13:15:18.390Z,48.70
2017-05-15T13:17:46.512Z,48.70
2017-05-15T13:20:14.043Z,48.20
2017-05-15T13:22:41.427Z,49.10
2017-05-15T13:25:08.896Z,49.00
2017-05-15T13:27:36.454Z,48.00
2017-05-15T13:30:04.909Z,47.80
2017-05-15T13:32:32.339Z,48.00
2017-05-15T13:35:00.135Z,47.10
2017-05-15T13:37:27.528Z,47.30
2017-05-15T13:39:55.113Z,45.40
2017-05-15T13:42:22.604Z,45.50
2017-05-15T13:44:51.046Z,46.10
2017-05-15T13:47:18.574Z,45.10
2017-05-15T13:49:46.725Z,46.20
2017-05-15T13:52:14.620Z,44.70
2017-05-15T13:54:42.109Z,45.50
2017-05-15T13:57:09.636Z,44.90
2017-05-15T13:59:37.900Z,46.10
2017-05-15T14:02:06.155Z,48.70
2017-05-15T14:04:34.575Z,51.30
2017-05-15T14:07:02.052Z,60.20
2017-05-15T14:09:29.479Z,62.10
2017-05-15T14:11:56.935Z,67.70
2017-05-15T14:14:24.359Z,68.00
2017-05-15T14:16:52.761Z,68.00
2017-05-15T14:19:20.531Z,68.50
2017-05-15T14:21:48.694Z,67.80
2017-05-15T14:24:16.874Z,68.90
2017-05-15T14:26:45.539Z,67.00
2017-05-15T14:29:13.231Z,68.20
2017-05-15T14:31:40.653Z,68.70
2017-05-15T14:34:08.244Z,69.20
2017-05-15T14:36:36.386Z,68.90
2017-05-15T14:39:03.825Z,69.30
2017-05-15T14:41:31.435Z,70.70
2017-05-15T14:43:59.578Z,70.70
2017-05-15T14:46:26.980Z,71.10
2017-05-15T14:48:54.371Z,71.00
2017-05-15T14:51:22.494Z,71.00
2017-05-15T14:53:49.931Z,73.00
2017-05-15T14:56:18.063Z,70.80
2017-05-15T14:58:45.449Z,71.50
2017-05-15T15:01:13.048Z,70.40
2017-05-15T15:03:40.587Z,69.60
2017-05-15T15:06:07.993Z,69.70
2017-05-15T15:08:35.545Z,69.90
2017-05-15T15:11:02.996Z,69.90
2017-05-15T15:13:31.244Z,69.80
2017-05-15T15:15:58.681Z,65.10
2017-05-15T15:18:26.817Z,66.00
2017-05-15T15:20:54.317Z,67.70
2017-05-15T15:23:22.465Z,68.30
2017-05-15T15:25:49.929Z,68.30
2017-05-15T15:28:17.769Z,66.90
2017-05-15T15:30:45.192Z,64.80
2017-05-15T15:33:13.183Z,63.50
2017-05-15T15:35:41.387Z,63.90
2017-05-15T15:38:08.755Z,63.50
2017-05-15T15:40:36.129Z,61.90
2017-05-15T15:43:04.249Z,64.90
2017-05-15T15:45:32.260Z,65.80
2017-05-15T15:47:59.685Z,64.30
2017-05-15T15:50:27.209Z,62.80
2017-05-15T15:52:55.738Z,62.70
2017-05-15T15:55:23.741Z,63.50
2017-05-15T15:57:51.589Z,63.80
2017-05-15T16:00:19.016Z,64.00
2017-05-15T16:02:46.444Z,63.60
2017-05-15T16:05:13.918Z,65.80
2017-05-15T16:07:41.362Z,61.70
2017-05-15T16:10:08.721Z,65.50
2017-05-15T16:12:36.574Z,62.60
2017-05-15T16:15:03.965Z,63.20
2017-05-15T16:17:31.611Z,64.00
2017-05-15T16:19:59.069Z,65.10
2017-05-15T16:22:26.542Z,64.40
2017-05-15T16:24:54.951Z,63.00
2017-05-15T16:27:23.150Z,64.30
2017-05-15T16:29:50.585Z,64.00
2017-05-15T16:32:18.003Z,64.40
2017-05-15T16:34:45.426Z,64.40
2017-05-15T16:37:13.088Z,64.50
2017-05-15T16:39:40.870Z,65.10
2017-05-15T16:42:08.552Z,67.80
2017-05-15T16:44:36.626Z,65.90
2017-05-15T16:47:04.070Z,66.30
2017-05-15T16:49:32.205Z,68.00
2017-05-15T16:51:59.659Z,66.60
2017-05-15T16:54:27.212Z,66.00
2017-05-15T16:56:55.594Z,66.10
2017-05-15T16:59:23.018Z,67.80
2017-05-15T17:01:51.122Z,68.40
2017-05-15T17:04:18.625Z,70.10
2017-05-15T17:06:46.026Z,71.00
2017-05-15T17:09:13.593Z,72.00
2017-05-15T17:11:40.994Z,72.50
2017-05-15T17:14:09.017Z,72.80
2017-05-15T17:16:36.563Z,73.40
2017-05-15T17:19:04.288Z,72.90
2017-05-15T17:21:32.160Z,72.70
2017-05-15T17:24:00.355Z,73.70
2017-05-15T17:26:29.033Z,75.30
2017-05-15T17:28:57.666Z,76.00
2017-05-15T17:31:25.650Z,76.30
2017-05-15T17:33:54.232Z,76.40
2017-05-15T17:36:23.018Z,76.80
2017-05-15T17:38:51.272Z,77.60
2017-05-15T17:41:20.292Z,76.10
2017-05-15T17:43:49.188Z,76.30
2017-05-15T17:46:17.764Z,76.30
2017-05-15T17:48:45.637Z,75.70
2017-05-15T17:51:13.700Z,77.40
2017-05-15T17:53:42.609Z,76.90
2017-05-15T17:56:10.130Z,76.30
2017-05-15T17:58:37.855Z,75.80
2017-05-15T18:01:05.387Z,75.30
2017-05-15T18:03:33.240Z,74.50
2017-05-15T18:06:01.564Z,75.80
2017-05-15T18:08:29.172Z,75.40
2017-05-15T18:10:56.607Z,74.80
2017-05-15T18:13:24.562Z,72.80
2017-05-15T18:15:52.157Z,73.10
2017-05-15T18:18:19.884Z,73.30
2017-05-15T18:20:47.492Z,73.60
2017-05-15T18:23:15.078Z,74.30
2017-05-15T18:25:43.219Z,75.00
2017-05-15T18:28:11.587Z,74.50
2017-05-15T18:30:40.218Z,74.00
2017-05-15T18:33:08.146Z,72.70
2017-05-15T18:35:36.453Z,72.40
2017-05-15T18:38:04.050Z,72.20
2017-05-15T18:40:32.276Z,72.50
2017-05-15T18:43:00.486Z,71.90
2017-05-15T18:45:27.957Z,73.00
2017-05-15T18:47:56.091Z,71.40
2017-05-15T18:50:24.342Z,70.90
2017-05-15T18:52:52.183Z,70.40
2017-05-15T18:55:19.747Z,70.40
2017-05-15T18:57:48.758Z,70.40
2017-05-15T19:00:17.191Z,70.20
2017-05-15T19:02:44.715Z,71.00
2017-05-15T19:05:12.956Z,70.60
2017-05-15T19:07:40.453Z,70.30
2017-05-15T19:10:08.693Z,70.30
2017-05-15T19:12:36.155Z,70.80
2017-05-15T19:15:03.710Z,70.00
2017-05-15T19:17:31.476Z,69.90
2017-05-15T19:19:59.086Z,69.60
2017-05-15T19:22:26.797Z,70.40
2017-05-15T19:24:54.246Z,71.70
2017-05-15T19:27:21.755Z,71.00
2017-05-15T19:29:50.113Z,72.20
2017-05-15T19:32:18.150Z,72.30
2017-05-15T19:34:45.997Z,73.70
2017-05-15T19:37:14.518Z,74.90
2017-05-15T19:39:41.987Z,74.20
2017-05-15T19:42:09.460Z,73.40
2017-05-15T19:44:37.686Z,73.60
2017-05-15T19:47:05.392Z,73.70
2017-05-15T19:49:33.613Z,73.60
2017-05-15T19:52:01.549Z,73.20
2017-05-15T19:54:29.744Z,73.80
2017-05-15T19:56:57.160Z,73.30
2017-05-15T19:59:25.648Z,73.10
2017-05-15T20:01:53.785Z,72.40
2017-05-15T20:04:21.624Z,72.20
2017-05-15T20:06:49.356Z,72.00
2017-05-15T20:09:16.822Z,72.70
2017-05-15T20:11:44.576Z,71.10
2017-05-15T20:14:12.671Z,70.90
2017-05-15T20:16:40.310Z,70.90
2017-05-15T20:19:08.079Z,71.30
2017-05-15T20:21:35.949Z,71.20
2017-05-15T20:24:03.401Z,70.40
2017-05-15T20:26:30.960Z,70.60
2017-05-15T20:28:58.417Z,70.20
2017-05-15T20:31:25.882Z,69.50
2017-05-15T20:33:53.386Z,69.00
2017-05-15T20:36:20.986Z,68.70
2017-05-15T20:38:48.444Z,67.70
2017-05-15T20:41:16.878Z,67.40
2017-05-15T20:43:44.369Z,67.30
2017-05-15T20:46:13.070Z,66.70
2017-05-15T20:48:40.985Z,66.60
2017-05-15T20:51:08.416Z,67.00
2017-05-15T20:53:36.003Z,66.90
2017-05-15T20:56:03.676Z,66.70
2017-05-15T20:58:31.345Z,65.90
2017-05-15T21:00:58.784Z,68.30
2017-05-15T21:03:27.078Z,66.40
2017-05-15T21:05:54.499Z,67.00
2017-05-15T21:08:21.937Z,68.50
2017-05-15T21:10:49.521Z,69.00
2017-05-15T21:13:17.151Z,68.20
2017-05-15T21:15:44.644Z,69.60
2017-05-15T21:18:12.973Z,70.80
2017-05-15T21:20:40.604Z,70.40
2017-05-15T21:23:09.395Z,71.00
2017-05-15T21:25:37.616Z,70.80
2017-05-15T21:28:05.055Z,71.00
2017-05-15T21:30:32.575Z,70.70
2017-05-15T21:33:00.871Z,72.60
2017-05-15T21:35:29.264Z,71.30
2017-05-15T21:37:56.706Z,72.20
2017-05-15T21:40:24.217Z,72.60
2017-05-15T21:42:51.801Z,72.90
2017-05-15T21:45:19.254Z,72.40
2017-05-15T21:47:46.679Z,73.00
2017-05-15T21:50:14.125Z,73.30
2017-05-15T21:52:41.511Z,73.50
2017-05-15T21:55:08.962Z,73.20
2017-05-15T21:57:36.393Z,73.30
2017-05-15T22:00:03.889Z,73.50
2017-05-15T22:02:32.215Z,73.70
2017-05-15T22:04:59.715Z,74.10
2017-05-15T22:07:27.272Z,74.10
2017-05-15T22:09:54.678Z,74.20
2017-05-15T22:12:29.032Z,74.40
2017-05-15T22:14:56.436Z,74.90
2017-05-15T22:17:24.626Z,74.90
2017-05-15T22:19:52.090Z,74.80
2017-05-15T22:22:19.518Z,74.70
2017-05-15T22:24:47.698Z,75.10
2017-05-15T22:27:15.107Z,75.90
2017-05-15T22:29:42.590Z,75.10
2017-05-15T22:32:10.041Z,75.30
2017-05-15T22:34:37.501Z,75.20
2017-05-15T22:37:05.156Z,74.90
2017-05-15T22:39:32.570Z,75.20
2017-05-15T22:41:59.978Z,75.40
2017-05-15T22:44:27.480Z,75.40
2017-05-15T22:46:54.911Z,75.40
2017-05-15T22:49:22.393Z,75.40
2017-05-15T22:51:49.990Z,75.30
2017-05-15T22:54:17.428Z,75.10
2017-05-15T22:56:44.896Z,75.30
2017-05-15T22:59:12.418Z,75.60
2017-05-15T23:01:40.585Z,75.70
2017-05-15T23:04:08.046Z,76.00
2017-05-15T23:06:35.804Z,75.90
2017-05-15T23:09:03.333Z,75.70
2017-05-15T23:11:31.732Z,75.60
2017-05-15T23:13:59.246Z,75.90
2017-05-15T23:16:26.880Z,75.90
2017-05-15T23:18:54.312Z,75.70
2017-05-15T23:21:22.454Z,75.30
2017-05-15T23:23:49.898Z,75.20
2017-05-15T23:26:17.313Z,75.20
2017-05-15T23:28:44.895Z,75.20
2017-05-15T23:31:12.331Z,75.10
2017-05-15T23:33:39.905Z,75.00
2017-05-15T23:36:07.358Z,74.70
2017-05-15T23:38:34.777Z,74.70
2017-05-15T23:41:02.964Z,75.20
2017-05-15T23:43:30.528Z,75.00
2017-05-15T23:45:57.961Z,75.60
2017-05-15T23:48:26.157Z,75.10
2017-05-15T23:50:53.817Z,75.10
2017-05-15T23:53:22.422Z,74.70
2017-05-15T23:55:49.840Z,74.90
2017-05-15T23:58:18.175Z,74.70
